KHWD

Hayward Executive Airport

Hayward, California, USA
METAR KHWD 231054Z AUTO 00000KT 10SM OVC018 13/09 A2999 RMK AO2 SLP165 T01330094
Observed Flight Rules
Oct-23 @ 10:54 UTC (55 minutes ago) Marginal Visual Flight Rules
Visibility Clouds
10 miles
  • Overcast at 1,800' AGL
Temperatures Readings
Current 13°C / 55°F
Dewpoint 9°C / 48°F
Humidity 77%
Altimeter 29.99" Hg
Pressure 1016.5 hPa
Elevation 21
METAR KHWD 231054Z AUTO 00000KT 10SM OVC018 13/09 A2999 RMK AO2 SLP165 T01330094
Observed Flight Rules
Oct-23 @ 10:54 UTC
(55 minutes ago)
MVFR
Clouds
  • Overcast at 1,800' AGL
Temperature Dewpoint
13°C / 55°F 9°C / 48°F
Humidity Altimeter Pressure
77% 29.99" Hg 1016.5 hPa